Time,TemperatureF,DewpointF,PressureIn,WindDirection,WindDirectionDegrees,WindSpeedMPH,WindSpeedGustMPH,Humidity,HourlyPrecipIn,Conditions,Clouds,dailyrainin,SoftwareType,DateUTC
2013-01-06 00:00:00,35.5,29.0,30.26,SSE,158,0.0,2.0,77,0.00,,OVC,0.00,VWS V14.01,2013-01-06 05:00:00,
2013-01-06 01:00:00,36.2,30.6,30.26,SSE,158,0.0,1.0,80,0.00,,OVC,0.00,VWS V14.01,2013-01-06 06:00:00,
2013-01-06 02:00:00,36.8,30.0,30.26,SSE,158,0.0,1.0,76,0.00,,OVC,0.00,VWS V14.01,2013-01-06 07:00:00,
2013-01-06 03:00:00,38.1,30.9,30.24,SSE,158,0.0,1.0,75,0.00,,OVC,0.00,VWS V14.01,2013-01-06 08:00:00,
2013-01-06 04:00:00,38.2,32.3,30.21,SSE,158,0.0,1.0,79,0.00,,OVC,0.00,VWS V14.01,2013-01-06 09:00:00,
2013-01-06 05:00:00,38.7,34.0,30.18,SSE,158,0.0,2.0,83,0.00,,OVC,0.00,VWS V14.01,2013-01-06 10:00:00,
2013-01-06 06:00:00,42.0,36.3,30.18,SW,225,0.0,5.0,80,0.00,,OVC,0.00,VWS V14.01,2013-01-06 11:00:00,
2013-01-06 07:00:00,41.3,35.9,30.18,SSW,202,0.0,2.0,81,0.00,,OVC,0.00,VWS V14.01,2013-01-06 12:00:00,
2013-01-06 08:00:00,40.7,36.2,30.19,SSW,202,0.0,2.0,84,0.00,,OVC,0.00,VWS V14.01,2013-01-06 13:00:00,
2013-01-06 09:00:00,40.5,36.7,30.20,SSW,202,0.0,1.0,86,0.00,,OVC,0.00,VWS V14.01,2013-01-06 14:00:00,
2013-01-06 10:00:00,42.5,36.8,30.20,SSW,202,0.0,2.0,80,0.00,,OVC,0.00,VWS V14.01,2013-01-06 15:00:00,
2013-01-06 11:00:00,43.0,37.6,30.18,SSW,202,0.0,2.0,81,0.00,,OVC,0.00,VWS V14.01,2013-01-06 16:00:00,
2013-01-06 12:00:00,45.3,38.9,30.16,SSW,202,0.0,3.0,78,0.00,,OVC,0.00,VWS V14.01,2013-01-06 17:00:00,
2013-01-06 13:00:00,51.1,40.9,30.10,WSW,248,1.0,5.0,68,0.00,,OVC,0.00,VWS V14.01,2013-01-06 18:00:00,
2013-01-06 14:00:00,51.1,40.9,30.10,WSW,248,1.0,5.0,68,0.00,,OVC,0.00,VWS V14.01,2013-01-06 19:00:00,
2013-01-06 15:00:00,52.4,41.4,30.08,SW,225,1.0,7.0,66,0.00,,OVC,0.00,VWS V14.01,2013-01-06 20:00:00,
2013-01-06 16:00:00,51.8,40.8,30.08,SSW,202,1.0,8.0,66,0.00,,OVC,0.00,VWS V14.01,2013-01-06 21:00:00,
2013-01-06 17:00:00,45.8,37.0,30.10,North,0,1.0,7.0,71,0.00,,OVC,0.00,VWS V14.01,2013-01-06 22:00:00,
2013-01-06 18:00:00,41.8,35.1,30.10,ENE,68,0.0,4.0,77,0.00,,OVC,0.00,VWS V14.01,2013-01-06 23:00:00,
2013-01-06 19:00:00,38.8,33.2,30.15,NNE,22,3.0,12.0,80,0.00,,OVC,0.00,VWS V14.01,2013-01-07 00:00:00,
2013-01-06 20:00:00,37.3,31.4,30.16,North,0,5.0,16.0,79,0.01,,OVC,0.01,VWS V14.01,2013-01-07 01:00:00,
2013-01-06 21:00:00,37.4,29.5,30.16,SW,225,5.0,15.0,73,0.01,,OVC,0.01,VWS V14.01,2013-01-07 02:00:00,
2013-01-06 22:00:00,36.0,29.2,30.19,SSW,202,3.0,19.0,76,0.00,,OVC,0.01,VWS V14.01,2013-01-07 03:00:00,
2013-01-06 23:00:00,36.6,29.4,30.22,South,180,1.0,11.0,75,0.00,,OVC,0.01,VWS V14.01,2013-01-07 04:00:00,